Time;durP1;ratioP1;P1;durP2;ratioP2;P2;SDS_P1;SDS_P2;PMS_P1;PMS_P2;Temp;Humidity;BMP_temperature;BMP_pressure;BME280_temperature;BME280_humidity;BME280_pressure;Samples;Min_cycle;Max_cycle;Signal;HPM_P1;HPM_P2
2021/05/30 00:01:06;;;;;;;2.00;1.90;;;;;;;6.42;95.05;96275.16;5097202;28;20637;-67
2021/05/30 00:03:33;;;;;;;3.03;2.83;;;;;;;6.42;94.81;96275.16;5077962;28;20233;-67
2021/05/30 00:06:01;;;;;;;4.63;4.33;;;;;;;6.37;94.96;96277.38;5084479;28;20234;-67
2021/05/30 00:08:29;;;;;;;2.50;1.83;;;;;;;6.40;95.18;96276.25;5091240;27;20245;-67
2021/05/30 00:10:57;;;;;;;2.70;2.60;;;;;;;6.40;95.25;96271.88;5084141;28;20234;-67
2021/05/30 00:13:24;;;;;;;2.57;2.43;;;;;;;6.40;95.82;96271.88;5094828;28;20229;-67
2021/05/30 00:15:52;;;;;;;1.77;1.67;;;;;;;6.39;95.38;96264.13;5091114;27;20297;-67
2021/05/30 00:18:19;;;;;;;2.60;2.40;;;;;;;6.38;95.51;96267.72;5101513;28;20444;-67
2021/05/30 00:20:47;;;;;;;1.80;1.70;;;;;;;6.33;95.72;96260.28;5087339;28;20269;-67
2021/05/30 00:23:15;;;;;;;1.97;1.87;;;;;;;6.34;95.96;96261.94;5087551;28;20280;-67
2021/05/30 00:25:42;;;;;;;2.40;2.30;;;;;;;6.33;95.52;96265.53;5072518;27;20263;-67
2021/05/30 00:28:10;;;;;;;2.80;1.50;;;;;;;6.35;95.90;96262.75;5074949;27;20270;-67
2021/05/30 00:30:37;;;;;;;2.40;2.30;;;;;;;6.35;95.68;96253.09;5095225;27;20253;-68
2021/05/30 00:33:05;;;;;;;1.97;1.87;;;;;;;6.34;95.86;96264.56;5100937;28;20317;-68
2021/05/30 00:35:33;;;;;;;1.97;1.87;;;;;;;6.27;95.59;96255.59;5083735;27;20327;-67
2021/05/30 00:38:00;;;;;;;2.47;2.37;;;;;;;6.25;95.27;96257.56;5096456;27;20213;-68
2021/05/30 00:40:28;;;;;;;1.87;1.77;;;;;;;6.17;95.17;96258.25;5096467;28;20214;-67
2021/05/30 00:42:55;;;;;;;1.70;1.60;;;;;;;6.12;95.24;96252.59;5103233;28;20286;-68
2021/05/30 00:45:23;;;;;;;4.60;2.50;;;;;;;6.11;95.15;96258.00;5095953;28;20353;-67
2021/05/30 00:47:50;;;;;;;2.13;2.03;;;;;;;6.05;95.17;96261.19;5104617;28;20303;-68
2021/05/30 00:50:17;;;;;;;1.77;1.40;;;;;;;5.94;95.40;96260.38;5089552;28;20228;-67
2021/05/30 00:52:45;;;;;;;2.33;2.13;;;;;;;5.90;95.25;96253.75;5093154;28;20304;-67
2021/05/30 00:55:13;;;;;;;2.60;2.30;;;;;;;5.83;95.49;96257.03;5093449;28;20232;-67
2021/05/30 00:57:42;;;;;;;1.77;1.67;;;;;;;5.81;95.35;96248.50;5080159;28;20280;-67
2021/05/30 01:00:13;;;;;;;1.97;1.87;;;;;;;5.81;95.71;96254.56;5075619;28;20298;-67
2021/05/30 01:02:40;;;;;;;4.23;2.17;;;;;;;5.80;95.89;96255.53;5085978;28;20226;-68
2021/05/30 01:05:09;;;;;;;2.03;1.83;;;;;;;5.79;96.28;96253.88;5087926;28;20245;-67
2021/05/30 01:07:41;;;;;;;1.97;1.87;;;;;;;5.79;96.29;96256.50;5103706;27;20678;-67
2021/05/30 01:10:18;;;;;;;2.20;1.50;;;;;;;5.78;96.46;96246.19;5106931;27;20312;-67
2021/05/30 01:12:48;;;;;;;1.37;1.10;;;;;;;5.77;96.51;96252.38;5098986;28;20308;-67
2021/05/30 01:15:16;;;;;;;1.70;1.60;;;;;;;5.77;96.57;96257.63;5100900;28;20653;-66
2021/05/30 01:17:46;;;;;;;2.10;1.90;;;;;;;5.74;96.62;96263.94;5097414;28;20285;-67
2021/05/30 01:20:17;;;;;;;1.87;1.77;;;;;;;5.71;96.78;96270.28;5101775;28;20638;-67
2021/05/30 01:22:46;;;;;;;1.90;1.80;;;;;;;5.69;97.10;96271.41;5086957;28;20248;-67
2021/05/30 01:25:16;;;;;;;1.57;1.47;;;;;;;5.72;97.10;96276.34;5077722;28;20217;-67
2021/05/30 01:27:44;;;;;;;1.30;1.20;;;;;;;5.76;97.11;96277.75;5106427;27;20231;-68
2021/05/30 01:30:13;;;;;;;1.73;1.63;;;;;;;5.76;97.03;96272.50;5100972;27;20221;-66
2021/05/30 01:32:43;;;;;;;2.17;2.07;;;;;;;5.75;96.79;96270.84;5091782;28;20226;-68
2021/05/30 01:35:11;;;;;;;3.13;1.70;;;;;;;5.74;96.81;96274.41;5095599;28;20275;-67
2021/05/30 01:37:39;;;;;;;1.07;1.07;;;;;;;5.75;96.72;96276.06;5086924;27;20695;-67
2021/05/30 01:40:08;;;;;;;1.43;1.33;;;;;;;5.74;96.65;96287.50;5111458;27;20217;-67
2021/05/30 01:42:37;;;;;;;2.53;1.63;;;;;;;5.72;96.62;96281.59;5096752;28;20681;-68
2021/05/30 01:45:06;;;;;;;2.07;1.87;;;;;;;5.69;96.59;96282.69;5095047;28;20613;-68
2021/05/30 01:47:37;;;;;;;2.53;2.33;;;;;;;5.64;96.10;96284.06;5093618;27;20261;-68
2021/05/30 01:50:07;;;;;;;1.60;1.50;;;;;;;5.59;96.27;96286.28;5098441;28;20218;-67
2021/05/30 01:52:35;;;;;;;1.07;0.97;;;;;;;5.54;95.89;96293.72;5090586;28;20301;-67
2021/05/30 01:55:04;;;;;;;2.20;2.00;;;;;;;5.47;95.58;96293.44;5067570;28;20237;-67
2021/05/30 01:57:36;;;;;;;2.53;2.27;;;;;;;5.41;95.69;96289.59;5101646;27;20384;-67
2021/05/30 02:00:05;;;;;;;1.60;1.50;;;;;;;5.37;95.52;96292.59;5094676;28;20244;-67
2021/05/30 02:02:39;;;;;;;1.00;1.00;;;;;;;5.29;95.70;96290.66;5088929;28;20221;-67
2021/05/30 02:05:07;;;;;;;1.47;1.37;;;;;;;5.28;96.29;96281.16;5079057;28;20253;-67
2021/05/30 02:07:38;;;;;;;1.10;1.10;;;;;;;5.26;96.60;96279.66;5100244;27;20749;-67
2021/05/30 02:10:08;;;;;;;1.30;1.30;;;;;;;5.21;96.57;96293.16;5097973;27;20217;-67
2021/05/30 02:12:35;;;;;;;1.00;1.00;;;;;;;5.20;96.75;96281.00;5102446;27;20221;-67
2021/05/30 02:15:05;;;;;;;0.73;0.73;;;;;;;5.19;97.12;96286.38;5073141;28;20248;-67
2021/05/30 02:17:34;;;;;;;1.07;0.97;;;;;;;5.18;97.35;96282.94;5088159;28;20213;-67
2021/05/30 02:20:02;;;;;;;0.90;0.90;;;;;;;5.13;96.72;96274.69;5095275;28;20293;-67
2021/05/30 02:22:31;;;;;;;0.80;0.80;;;;;;;5.03;96.27;96284.28;5088530;28;20286;-67
2021/05/30 02:24:59;;;;;;;1.20;0.83;;;;;;;4.93;96.64;96279.00;5084903;28;20316;-67
2021/05/30 02:27:26;;;;;;;0.80;0.80;;;;;;;4.89;96.25;96282.88;5102490;27;20515;-67
2021/05/30 02:29:56;;;;;;;1.03;1.03;;;;;;;4.82;96.89;96284.34;5098493;27;20305;-67
2021/05/30 02:32:25;;;;;;;1.53;1.43;;;;;;;4.78;96.34;96286.44;5102175;28;20542;-67
2021/05/30 02:34:52;;;;;;;0.63;0.60;;;;;;;4.72;95.99;96286.94;5100158;28;20256;-67
2021/05/30 02:37:20;;;;;;;0.70;0.70;;;;;;;4.66;96.09;96284.84;5075529;28;20213;-66
2021/05/30 02:39:47;;;;;;;1.10;1.07;;;;;;;4.66;96.13;96292.69;5101977;27;20257;-67
2021/05/30 02:42:15;;;;;;;0.97;0.97;;;;;;;4.64;96.65;96294.63;5099933;28;20300;-67
2021/05/30 02:44:42;;;;;;;1.33;1.13;;;;;;;4.63;97.05;96290.34;5095116;28;20313;-66
2021/05/30 02:47:09;;;;;;;1.53;1.43;;;;;;;4.65;97.15;96291.03;5094165;28;20308;-66
2021/05/30 02:49:38;;;;;;;1.60;1.50;;;;;;;4.67;97.35;96294.38;5081818;28;20525;-68
2021/05/30 02:52:06;;;;;;;1.37;1.27;;;;;;;4.71;97.07;96300.97;5089081;28;20263;-67
2021/05/30 02:54:33;;;;;;;1.10;1.10;;;;;;;4.73;97.49;96299.06;5096083;28;20253;-67
2021/05/30 02:57:00;;;;;;;1.47;1.37;;;;;;;4.77;97.61;96308.31;5090774;28;20475;-67
2021/05/30 02:59:28;;;;;;;1.13;1.03;;;;;;;4.81;97.83;96312.28;5094407;28;20235;-67
2021/05/30 03:01:55;;;;;;;2.20;2.00;;;;;;;4.83;97.52;96304.31;5081786;28;20728;-65
2021/05/30 03:04:23;;;;;;;4.40;4.10;;;;;;;4.80;97.49;96313.25;5084190;28;20702;-64
2021/05/30 03:06:51;;;;;;;4.50;4.30;;;;;;;4.81;97.08;96314.09;5094367;27;20241;-65
2021/05/30 03:09:18;;;;;;;3.07;2.97;;;;;;;4.82;97.05;96313.94;5102608;27;20232;-65
2021/05/30 03:11:45;;;;;;;3.27;3.07;;;;;;;4.82;97.18;96313.94;5099301;28;20296;-64
2021/05/30 03:14:13;;;;;;;2.93;2.73;;;;;;;4.84;96.83;96311.19;5073652;28;20683;-65
2021/05/30 03:16:40;;;;;;;3.50;3.33;;;;;;;4.87;97.11;96312.75;5093887;28;20224;-65
2021/05/30 03:19:08;;;;;;;3.20;3.00;;;;;;;4.82;96.58;96308.72;5096233;28;20686;-65
2021/05/30 03:21:35;;;;;;;2.80;2.00;;;;;;;4.80;97.32;96305.41;5095204;28;20308;-65
2021/05/30 03:24:04;;;;;;;2.73;2.63;;;;;;;4.80;96.90;96315.06;5097683;28;20307;-65
2021/05/30 03:26:32;;;;;;;2.13;2.03;;;;;;;4.79;97.07;96314.22;5093520;28;20244;-65
2021/05/30 03:28:59;;;;;;;2.43;2.30;;;;;;;4.81;97.23;96317.53;5112012;27;20724;-65
2021/05/30 03:31:26;;;;;;;2.57;2.37;;;;;;;4.83;97.17;96315.59;5092207;28;20304;-65
2021/05/30 03:33:54;;;;;;;1.90;1.80;;;;;;;4.89;97.72;96314.25;5098862;28;20252;-65
2021/05/30 03:36:24;;;;;;;2.30;2.17;;;;;;;4.89;97.41;96309.03;5104021;28;20255;-65
2021/05/30 03:39:00;;;;;;;2.33;2.20;;;;;;;4.94;97.31;96311.22;5096499;28;20279;-64
2021/05/30 03:41:33;;;;;;;2.27;2.07;;;;;;;4.98;96.89;96316.06;5097043;28;20304;-65
2021/05/30 03:44:01;;;;;;;2.33;2.23;;;;;;;5.01;96.60;96314.97;5106067;28;20247;-64
2021/05/30 03:46:28;;;;;;;2.57;2.13;;;;;;;5.03;96.29;96315.66;5089856;27;20448;-65
2021/05/30 03:48:56;;;;;;;2.63;2.43;;;;;;;5.08;96.25;96313.47;5102140;28;20509;-65
2021/05/30 03:51:23;;;;;;;1.97;1.87;;;;;;;5.14;95.71;96315.56;5099234;28;20249;-65
2021/05/30 03:53:51;;;;;;;2.53;2.27;;;;;;;5.17;95.58;96312.69;5104615;28;20241;-65
2021/05/30 03:56:18;;;;;;;2.07;1.87;;;;;;;5.22;95.48;96314.91;5103499;27;20252;-65
2021/05/30 03:58:46;;;;;;;3.47;2.40;;;;;;;5.27;95.43;96318.75;5104700;28;20262;-65
2021/05/30 04:01:14;;;;;;;3.10;2.80;;;;;;;5.33;95.30;96317.41;5098649;27;20305;-66
2021/05/30 04:03:41;;;;;;;2.60;2.43;;;;;;;5.39;95.11;96322.06;5108253;27;20720;-64
2021/05/30 04:06:09;;;;;;;2.17;2.07;;;;;;;5.43;94.64;96324.28;5102300;28;20304;-64
2021/05/30 04:08:36;;;;;;;1.70;1.60;;;;;;;5.48;94.62;96326.50;5101973;28;20240;-65
2021/05/30 04:11:03;;;;;;;2.20;2.10;;;;;;;5.51;94.45;96321.00;5075837;28;20314;-66
2021/05/30 04:13:34;;;;;;;2.33;2.13;;;;;;;5.52;94.30;96325.28;5102706;27;20226;-63
2021/05/30 04:16:02;;;;;;;2.73;2.03;;;;;;;5.54;94.21;96335.59;5104355;27;20636;-65
2021/05/30 04:18:30;;;;;;;2.07;1.97;;;;;;;5.55;94.18;96324.16;5087796;28;20256;-65
2021/05/30 04:20:57;;;;;;;1.33;1.23;;;;;;;5.62;94.02;96322.66;5099164;28;20297;-65
2021/05/30 04:23:24;;;;;;;1.67;1.57;;;;;;;5.72;93.97;96324.31;5086188;27;20303;-65
2021/05/30 04:25:52;;;;;;;1.63;1.47;;;;;;;5.83;94.33;96323.34;5100731;27;20315;-65
2021/05/30 04:28:19;;;;;;;2.37;1.90;;;;;;;5.93;94.31;96326.81;5093626;28;20312;-65
2021/05/30 04:30:47;;;;;;;2.07;1.83;;;;;;;6.05;94.52;96318.84;5098074;27;20291;-65
2021/05/30 04:33:15;;;;;;;1.73;1.63;;;;;;;6.19;94.69;96321.00;5104254;28;20701;-65
2021/05/30 04:35:42;;;;;;;2.73;2.60;;;;;;;6.32;94.54;96321.56;5102860;28;20262;-65
2021/05/30 04:38:09;;;;;;;2.27;2.17;;;;;;;6.49;94.50;96326.06;5092909;28;20210;-64
2021/05/30 04:40:37;;;;;;;2.87;2.67;;;;;;;6.65;94.35;96316.75;5104550;27;20241;-65
2021/05/30 04:43:04;;;;;;;3.37;3.17;;;;;;;6.78;94.14;96322.53;5097105;28;20312;-65
2021/05/30 04:45:32;;;;;;;2.73;2.53;;;;;;;6.88;93.71;96323.31;5105278;28;20310;-65
2021/05/30 04:47:59;;;;;;;2.27;2.17;;;;;;;6.97;92.98;96314.56;5090803;28;20236;-66
2021/05/30 04:50:28;;;;;;;2.63;2.43;;;;;;;7.04;92.56;96317.41;5103513;27;20642;-65
2021/05/30 04:52:55;;;;;;;3.20;2.90;;;;;;;7.12;92.72;96314.88;5104009;28;20644;-65
2021/05/30 04:55:23;;;;;;;3.30;2.93;;;;;;;7.22;92.58;96314.81;5087212;28;20318;-64
2021/05/30 04:57:50;;;;;;;2.60;2.50;;;;;;;7.34;92.72;96325.00;5094208;28;20244;-65
2021/05/30 05:00:18;;;;;;;2.80;2.60;;;;;;;7.50;92.37;96323.50;5103528;27;20328;-65
2021/05/30 05:02:46;;;;;;;3.50;3.30;;;;;;;7.65;91.89;96325.47;5089862;28;20240;-65
2021/05/30 05:05:14;;;;;;;2.90;2.53;;;;;;;7.78;91.63;96316.41;5103854;28;20662;-65
2021/05/30 05:07:44;;;;;;;5.50;2.80;;;;;;;7.92;91.13;96318.50;5093461;27;20301;-65
2021/05/30 05:10:12;;;;;;;4.40;4.10;;;;;;;8.03;90.80;96322.69;5091742;28;20260;-65
2021/05/30 05:12:40;;;;;;;4.20;3.90;;;;;;;8.15;89.67;96317.06;5101263;28;20281;-65
2021/05/30 05:15:09;;;;;;;4.23;3.93;;;;;;;8.25;89.54;96324.84;5086954;28;20259;-65
2021/05/30 05:17:36;;;;;;;4.10;3.80;;;;;;;8.40;89.65;96325.13;5096639;28;20281;-65
2021/05/30 05:20:06;;;;;;;3.83;3.63;;;;;;;8.50;87.97;96320.59;5072169;28;20769;-65
2021/05/30 05:22:34;;;;;;;3.70;3.50;;;;;;;8.59;87.29;96317.03;5099443;28;20213;-65
2021/05/30 05:25:03;;;;;;;4.23;3.93;;;;;;;8.64;87.18;96325.31;5095016;28;20332;-65
2021/05/30 05:27:31;;;;;;;3.57;3.27;;;;;;;8.75;87.24;96327.66;5075289;28;20221;-65
2021/05/30 05:29:58;;;;;;;3.00;2.80;;;;;;;8.86;87.40;96325.75;5093848;28;20315;-65
2021/05/30 05:32:26;;;;;;;8.13;4.23;;;;;;;8.93;86.68;96324.13;5092896;28;20299;-65
2021/05/30 05:34:53;;;;;;;4.17;3.67;;;;;;;9.05;85.72;96318.47;5097431;28;20321;-65
2021/05/30 05:37:20;;;;;;;4.17;3.97;;;;;;;9.18;85.80;96318.00;5095857;28;20248;-66
2021/05/30 05:39:48;;;;;;;4.50;4.20;;;;;;;9.33;85.54;96320.88;5087274;28;20252;-65
2021/05/30 05:42:16;;;;;;;3.80;3.57;;;;;;;9.45;85.58;96321.38;5092852;28;20278;-65
2021/05/30 05:44:43;;;;;;;3.13;2.93;;;;;;;9.52;84.53;96325.03;5085999;28;20278;-66
2021/05/30 05:47:11;;;;;;;4.03;3.70;;;;;;;9.57;83.42;96313.00;5095457;28;20726;-65
2021/05/30 05:49:38;;;;;;;3.93;3.73;;;;;;;9.63;84.91;96320.28;5078078;28;20726;-65
2021/05/30 05:52:06;;;;;;;4.50;4.10;;;;;;;9.68;85.17;96319.78;5097692;28;20275;-66
2021/05/30 05:54:50;;;;;;;3.97;3.73;;;;;;;9.75;84.72;96315.50;5091560;28;20231;-65
2021/05/30 05:57:18;;;;;;;4.17;3.87;;;;;;;9.92;83.66;96311.91;5091898;28;20332;-65
2021/05/30 05:59:46;;;;;;;6.57;3.53;;;;;;;9.88;83.01;96318.50;5082698;28;20562;-65
2021/05/30 06:02:13;;;;;;;5.80;3.20;;;;;;;9.96;82.85;96323.75;5091062;28;20328;-65
2021/05/30 06:04:44;;;;;;;4.30;3.07;;;;;;;10.05;82.64;96326.41;5097032;28;20233;-65
2021/05/30 06:07:11;;;;;;;5.40;4.00;;;;;;;10.15;82.57;96313.88;5103183;27;20393;-65
2021/05/30 06:09:39;;;;;;;3.33;3.13;;;;;;;10.30;82.44;96314.91;5100429;27;20717;-66
2021/05/30 06:12:07;;;;;;;5.70;3.80;;;;;;;10.42;81.97;96324.16;5101148;28;20641;-66
2021/05/30 06:14:36;;;;;;;5.10;4.00;;;;;;;10.51;81.10;96315.25;5094875;28;20233;-65
2021/05/30 06:17:04;;;;;;;7.90;6.53;;;;;;;10.58;81.35;96318.00;5088787;28;20221;-65
2021/05/30 06:19:32;;;;;;;4.73;4.43;;;;;;;10.71;81.32;96317.50;5105918;28;20244;-65
2021/05/30 06:22:01;;;;;;;3.97;3.67;;;;;;;10.79;80.52;96317.50;5100799;28;20602;-65
2021/05/30 06:24:29;;;;;;;4.40;4.10;;;;;;;10.83;80.72;96314.34;5085519;28;20229;-64
2021/05/30 06:26:57;;;;;;;4.57;4.30;;;;;;;10.99;79.71;96315.28;5085471;28;20629;-65
2021/05/30 06:29:25;;;;;;;5.30;4.97;;;;;;;11.08;79.06;96315.09;5086669;28;20645;-66
2021/05/30 06:31:55;;;;;;;4.37;4.07;;;;;;;11.18;78.24;96309.59;5082154;28;20226;-65
2021/05/30 06:34:24;;;;;;;6.30;5.30;;;;;;;11.26;78.73;96306.09;5091627;28;20700;-65
2021/05/30 06:36:52;;;;;;;5.07;4.73;;;;;;;11.39;77.75;96303.72;5099071;28;20315;-65
2021/05/30 06:39:19;;;;;;;3.83;3.57;;;;;;;11.46;76.52;96307.31;5106114;28;20234;-66
2021/05/30 06:41:47;;;;;;;3.40;3.20;;;;;;;11.55;77.29;96301.00;5103945;28;20340;-66
2021/05/30 06:44:14;;;;;;;6.37;5.80;;;;;;;11.66;76.01;96307.69;5105760;28;20228;-66
2021/05/30 06:46:41;;;;;;;5.43;4.40;;;;;;;11.80;76.17;96303.53;5087908;28;20244;-65
2021/05/30 06:49:10;;;;;;;4.00;3.67;;;;;;;11.97;74.74;96299.75;5085148;28;20256;-66
2021/05/30 06:51:37;;;;;;;3.27;3.07;;;;;;;12.11;74.32;96309.56;5082941;28;20258;-66
2021/05/30 06:54:06;;;;;;;5.40;4.97;;;;;;;12.22;74.61;96300.38;5084911;28;20232;-66
2021/05/30 06:56:33;;;;;;;3.20;2.97;;;;;;;12.34;74.21;96301.59;5089568;28;20671;-65
2021/05/30 06:59:01;;;;;;;3.17;2.97;;;;;;;12.53;73.00;96308.22;5096808;28;20258;-65
2021/05/30 07:01:28;;;;;;;3.33;3.13;;;;;;;12.69;72.33;96304.59;5092159;28;20222;-65
2021/05/30 07:03:56;;;;;;;3.40;3.20;;;;;;;12.80;72.85;96296.19;5103792;28;20227;-66
2021/05/30 07:06:24;;;;;;;4.13;3.53;;;;;;;12.86;72.52;96305.25;5100947;28;20328;-66
2021/05/30 07:08:51;;;;;;;3.13;2.93;;;;;;;12.99;72.71;96300.16;5085044;28;20313;-66
2021/05/30 07:11:18;;;;;;;2.80;2.63;;;;;;;13.16;72.22;96312.19;5083771;28;20320;-66
2021/05/30 07:13:46;;;;;;;4.60;2.33;;;;;;;13.34;72.36;96310.00;5085453;28;20237;-67
2021/05/30 07:16:13;;;;;;;3.53;3.33;;;;;;;13.62;71.42;96306.66;5088567;28;20324;-67
2021/05/30 07:18:41;;;;;;;2.67;2.40;;;;;;;13.87;70.74;96305.31;5104917;28;20232;-66
2021/05/30 07:21:08;;;;;;;2.47;2.37;;;;;;;14.03;68.90;96293.63;5096443;28;20633;-67
2021/05/30 07:23:37;;;;;;;3.03;2.80;;;;;;;14.22;68.36;96297.47;5099131;28;20220;-66
2021/05/30 07:26:05;;;;;;;2.87;2.67;;;;;;;14.33;67.31;96301.44;5104414;28;20276;-66
2021/05/30 07:28:33;;;;;;;2.60;2.50;;;;;;;14.38;68.29;96294.56;5102265;28;20281;-66
2021/05/30 07:31:01;;;;;;;2.83;2.70;;;;;;;14.57;67.83;96310.88;5088673;28;20628;-67
2021/05/30 07:33:28;;;;;;;3.07;2.87;;;;;;;14.78;65.06;96300.19;5099741;28;20282;-66
2021/05/30 07:35:56;;;;;;;4.23;3.50;;;;;;;14.88;66.15;96294.53;5102802;28;20312;-66
2021/05/30 07:38:23;;;;;;;3.07;2.87;;;;;;;14.89;65.25;96298.81;5087442;28;20233;-65
2021/05/30 07:40:51;;;;;;;2.90;2.70;;;;;;;15.07;64.43;96296.47;5082871;28;20933;-66
2021/05/30 07:43:19;;;;;;;2.93;2.73;;;;;;;15.14;62.60;96292.03;5089535;28;20232;-65
2021/05/30 07:45:46;;;;;;;2.10;1.97;;;;;;;15.23;63.72;96301.47;5095470;28;20604;-66
2021/05/30 07:48:13;;;;;;;2.87;2.60;;;;;;;15.29;62.62;96295.38;5097639;28;20229;-67
2021/05/30 07:50:41;;;;;;;2.27;2.07;;;;;;;15.50;61.19;96302.41;5100254;28;20777;-67
2021/05/30 07:53:08;;;;;;;3.47;3.27;;;;;;;15.72;60.74;96304.97;5107984;28;20591;-66
2021/05/30 07:55:36;;;;;;;2.13;1.93;;;;;;;15.85;59.91;96295.19;5102392;28;20244;-66
2021/05/30 07:58:04;;;;;;;2.53;2.43;;;;;;;16.02;61.73;96300.97;5094861;28;20228;-66
2021/05/30 08:00:32;;;;;;;9.00;3.57;;;;;;;16.23;60.10;96296.50;5091504;28;20304;-67
2021/05/30 08:02:59;;;;;;;2.07;1.93;;;;;;;16.48;58.66;96294.88;5093204;28;20266;-66
2021/05/30 08:05:27;;;;;;;2.43;2.27;;;;;;;16.51;56.04;96294.44;5091347;28;20232;-67
2021/05/30 08:07:54;;;;;;;2.40;2.30;;;;;;;16.27;56.69;96287.06;5101652;28;20339;-67
2021/05/30 08:10:23;;;;;;;3.83;3.53;;;;;;;16.30;59.91;96292.00;5102205;28;20271;-66
2021/05/30 08:12:50;;;;;;;2.83;2.63;;;;;;;16.34;57.14;96288.72;5101784;28;20217;-66
2021/05/30 08:15:21;;;;;;;2.37;1.80;;;;;;;16.53;55.58;96291.56;5094334;28;20233;-66
2021/05/30 08:17:51;;;;;;;2.50;2.33;;;;;;;16.71;57.01;96284.63;5102970;28;20874;-67
2021/05/30 08:20:20;;;;;;;2.73;2.50;;;;;;;16.82;56.27;96285.03;5101445;28;20274;-66
2021/05/30 08:22:48;;;;;;;2.87;2.70;;;;;;;16.92;56.76;96280.09;5097918;28;20334;-66
2021/05/30 08:25:16;;;;;;;4.30;4.00;;;;;;;16.96;55.21;96278.66;5102111;28;20298;-67
2021/05/30 08:27:45;;;;;;;1.77;1.67;;;;;;;17.17;56.44;96283.72;5101801;28;20589;-67
2021/05/30 08:30:13;;;;;;;2.07;1.97;;;;;;;17.62;57.67;96284.56;5103876;28;20241;-67
2021/05/30 08:32:41;;;;;;;2.70;1.90;;;;;;;17.76;57.10;96288.03;5104510;28;20239;-67
2021/05/30 08:35:10;;;;;;;1.40;1.30;;;;;;;17.81;56.79;96290.88;5097469;28;20309;-66
2021/05/30 08:37:41;;;;;;;2.60;2.33;;;;;;;17.57;56.24;96289.75;5100504;28;20298;-65
2021/05/30 08:40:10;;;;;;;3.93;2.90;;;;;;;17.08;57.94;96290.31;5101684;28;20277;-66
2021/05/30 08:42:37;;;;;;;3.10;2.93;;;;;;;16.84;58.13;96288.31;5091009;28;20490;-67
2021/05/30 08:45:06;;;;;;;2.53;2.43;;;;;;;16.67;56.52;96283.38;5102769;28;20301;-67
2021/05/30 08:47:34;;;;;;;3.03;2.83;;;;;;;16.67;57.00;96288.72;5100521;28;20649;-66
2021/05/30 08:50:04;;;;;;;3.57;3.23;;;;;;;16.39;58.32;96293.44;5103627;28;20228;-66
2021/05/30 08:52:33;;;;;;;2.73;2.53;;;;;;;16.13;57.98;96295.03;5099850;28;20311;-66
2021/05/30 08:55:03;;;;;;;1.17;1.17;;;;;;;16.44;56.12;96293.63;5101209;28;20229;-66
2021/05/30 08:57:30;;;;;;;2.23;2.13;;;;;;;16.49;54.09;96292.00;5102914;27;20213;-66
2021/05/30 08:59:58;;;;;;;2.37;2.27;;;;;;;16.38;52.56;96289.97;5105099;28;20241;-65
2021/05/30 09:02:26;;;;;;;2.50;2.20;;;;;;;16.77;54.08;96283.00;5101488;28;20248;-67
2021/05/30 09:04:55;;;;;;;2.73;1.80;;;;;;;17.28;52.39;96290.25;5105552;28;20714;-66
2021/05/30 09:07:39;;;;;;;1.53;1.43;;;;;;;17.53;50.34;96277.03;5084931;28;20312;-65
2021/05/30 09:10:08;;;;;;;2.00;1.90;;;;;;;17.85;49.40;96281.41;5088975;28;20408;-67
2021/05/30 09:13:04;;;;;;;1.93;1.73;;;;;;;18.21;48.34;96279.97;5081848;28;20231;-67
2021/05/30 09:15:52;;;;;;;2.00;1.90;;;;;;;18.67;47.53;96276.13;5094427;28;20351;-67
2021/05/30 09:18:21;;;;;;;1.90;1.80;;;;;;;19.03;46.36;96273.53;5090838;27;20594;-67
2021/05/30 09:20:53;;;;;;;2.70;1.47;;;;;;;19.52;44.94;96268.22;5089870;27;20232;-66
2021/05/30 09:23:33;;;;;;;1.30;1.23;;;;;;;19.44;45.00;96269.34;5108125;27;20221;-67
2021/05/30 09:26:14;;;;;;;1.83;1.73;;;;;;;19.00;46.59;96273.94;5093473;27;20411;-66
2021/05/30 09:29:02;;;;;;;2.00;1.90;;;;;;;18.46;44.50;96278.09;5104426;27;20355;-67
2021/05/30 09:31:29;;;;;;;1.93;1.83;;;;;;;18.27;45.79;96287.09;5098565;28;20233;-67
2021/05/30 09:33:57;;;;;;;1.07;1.07;;;;;;;18.27;48.22;96287.09;5091072;28;20224;-67
2021/05/30 09:36:24;;;;;;;1.97;1.87;;;;;;;18.11;47.63;96284.97;5101117;28;20224;-66
2021/05/30 09:39:05;;;;;;;2.20;1.60;;;;;;;17.97;47.01;96283.41;5104046;27;20224;-66
2021/05/30 09:41:32;;;;;;;2.37;2.17;;;;;;;17.69;47.06;96287.22;5107075;27;20303;-67
2021/05/30 09:44:00;;;;;;;1.70;1.60;;;;;;;17.40;47.57;96282.44;5096173;28;20259;-66
2021/05/30 09:46:32;;;;;;;2.30;2.07;;;;;;;17.40;49.43;96287.75;5102451;28;20726;-67
2021/05/30 09:49:00;;;;;;;1.70;1.30;;;;;;;17.47;51.08;96277.88;5085051;28;20510;-67
2021/05/30 09:51:34;;;;;;;2.90;1.80;;;;;;;17.72;48.36;96283.31;5092480;28;20226;-67
2021/05/30 09:54:05;;;;;;;1.70;1.60;;;;;;;18.41;47.50;96275.28;5085775;28;20221;-67
2021/05/30 09:56:38;;;;;;;3.17;2.07;;;;;;;19.14;48.13;96274.63;5087060;28;20494;-67
2021/05/30 09:59:09;;;;;;;3.10;2.83;;;;;;;19.64;47.19;96265.63;5091371;28;20217;-67
2021/05/30 10:01:54;;;;;;;3.27;1.90;;;;;;;19.83;44.60;96262.69;5098300;28;20220;-68
2021/05/30 10:04:23;;;;;;;2.30;2.03;;;;;;;19.98;45.40;96270.31;5101604;28;20221;-67
2021/05/30 10:06:51;;;;;;;3.07;2.13;;;;;;;20.35;45.36;96264.81;5094858;28;20268;-68
2021/05/30 10:09:19;;;;;;;1.90;1.80;;;;;;;20.94;44.39;96263.88;5079794;28;20263;-67
2021/05/30 10:11:47;;;;;;;1.53;1.43;;;;;;;21.44;40.18;96257.16;5101903;28;20240;-67
2021/05/30 10:14:14;;;;;;;1.30;1.30;;;;;;;21.91;41.29;96260.50;5105148;27;20323;-67
2021/05/30 10:16:42;;;;;;;2.20;1.10;;;;;;;22.23;38.32;96265.41;5097072;28;20296;-67
2021/05/30 10:19:14;;;;;;;2.83;1.97;;;;;;;22.38;38.86;96263.78;5098788;28;20677;-67
2021/05/30 10:21:46;;;;;;;1.40;1.37;;;;;;;22.56;40.97;96253.84;5091578;28;20217;-67
2021/05/30 10:24:14;;;;;;;1.63;1.53;;;;;;;22.77;40.04;96258.50;5101588;27;20588;-68
2021/05/30 10:27:08;;;;;;;1.20;1.10;;;;;;;23.09;38.43;96252.53;5079267;28;20214;-68
2021/05/30 10:29:36;;;;;;;1.40;1.30;;;;;;;23.11;39.13;96261.16;5099947;27;20224;-68
2021/05/30 10:32:15;;;;;;;1.30;1.20;;;;;;;23.04;35.47;96249.75;5093832;27;20316;-67
2021/05/30 10:35:11;;;;;;;7.30;1.67;;;;;;;22.78;36.59;96254.75;5095816;28;20593;-68
2021/05/30 10:37:44;;;;;;;1.57;1.47;;;;;;;22.82;37.45;96247.81;5070416;28;20311;-68
2021/05/30 10:40:27;;;;;;;1.80;1.70;;;;;;;22.93;35.63;96246.91;5098744;27;20216;-68
2021/05/30 10:43:21;;;;;;;1.20;1.20;;;;;;;22.49;37.43;96263.94;5089467;27;20642;-68
2021/05/30 10:46:06;;;;;;;1.07;1.07;;;;;;;22.55;40.30;96252.22;5093395;28;20248;-68
2021/05/30 10:48:35;;;;;;;1.53;1.43;;;;;;;22.79;37.81;96240.22;5095061;28;20213;-67
2021/05/30 10:54:05;;;;;;;1.40;1.40;;;;;;;23.72;33.95;96245.81;5080318;27;20240;-68
2021/05/30 10:56:34;;;;;;;1.90;1.80;;;;;;;23.10;37.04;96240.69;5072143;28;20309;-69
2021/05/30 10:59:23;;;;;;;1.67;1.57;;;;;;;23.06;36.64;96243.06;5093768;27;20292;-69
2021/05/30 11:01:51;;;;;;;1.40;1.33;;;;;;;23.15;35.80;96238.06;5091044;28;20298;-70
2021/05/30 11:04:32;;;;;;;2.07;1.93;;;;;;;23.63;37.66;96241.94;5096649;27;20229;-69
2021/05/30 11:07:01;;;;;;;1.52;1.38;;;;;;;23.78;35.55;96244.81;5083424;28;20252;-70
2021/05/30 11:10:11;;;;;;;1.03;1.03;;;;;;;23.98;38.26;96241.50;5096785;28;20229;-70
2021/05/30 11:12:51;;;;;;;1.02;1.02;;;;;;;24.01;35.21;96244.50;5088238;28;20240;-70
2021/05/30 11:15:27;;;;;;;1.65;1.55;;;;;;;23.72;35.33;96235.84;5076919;28;20679;-70
2021/05/30 11:17:55;;;;;;;2.05;1.30;;;;;;;23.32;35.28;96236.16;5106032;27;20596;-70
2021/05/30 11:20:27;;;;;;;1.73;1.63;;;;;;;22.81;35.29;96235.41;5110258;27;20224;-70
2021/05/30 11:22:57;;;;;;;1.50;1.40;;;;;;;22.65;35.21;96233.53;5085229;28;20247;-69
2021/05/30 11:25:31;;;;;;;1.00;1.00;;;;;;;22.81;36.31;96230.03;5100018;28;20308;-69
2021/05/30 11:28:00;;;;;;;2.00;1.03;;;;;;;23.06;38.45;96226.91;5098452;28;20303;-69
2021/05/30 11:30:50;;;;;;;2.07;1.97;;;;;;;22.55;37.03;96238.78;5096614;28;20474;-70
2021/05/30 11:33:42;;;;;;;2.33;1.50;;;;;;;22.30;36.23;96234.59;5095081;28;20317;-69
2021/05/30 11:36:18;;;;;;;1.17;1.07;;;;;;;21.77;37.43;96241.19;5095138;28;20220;-69
2021/05/30 11:38:51;;;;;;;2.43;2.33;;;;;;;21.89;39.18;96233.06;5093199;28;20323;-69
2021/05/30 11:41:22;;;;;;;1.97;1.87;;;;;;;22.50;39.70;96234.13;5103137;28;20232;-69
2021/05/30 11:44:02;;;;;;;0.93;0.93;;;;;;;22.78;37.08;96222.47;5104747;28;20304;-69
2021/05/30 11:46:32;;;;;;;3.17;2.70;;;;;;;23.09;36.56;96222.91;5101765;28;20241;-69
2021/05/30 11:49:07;;;;;;;3.45;2.35;;;;;;;23.21;37.49;96223.59;5104674;28;20228;-69
2021/05/30 11:51:46;;;;;;;3.30;1.90;;;;;;;23.43;38.46;96216.34;5102759;28;20372;-69